Decoded Metar for KFCI ( in ) (IATA:) | Meteo·Mobile Aviation Weather
aviador You're here:

KFCI Decoded Metar

in
Report Time2018-09-20 01:56:00
UTC Time2018-09-20 02:14:14
Flight Rules vfr VFR
WindCalm
Visibility9999 m
Phenomena:N/A
Clouds:N/A
Expected CloudBase > 400 ft AGL from Temp-Dew spread
CeilingNone
Temp23°C
Dew Point22°C (94% RH)
QNH1017 hPa
Raw Report
KFCI 200156Z AUTO 00000KT 10SM CLR 23/22 A3002 RMK AO2 SLP181
T02280217=

Extra information for KFCI:More info

Social comments